Currently 70°F in Fallbrook, California, USA
70°F
70°F / 61°F
1 mph SE
0.00"
Friday, November 17, 2017 11:14 AM PST

Fallbrook, California Weather Summary
Last 36 Hours

Temperature Winds Hourly Humidity Dewpoint
Time Report Norm Report Norm Max Gusts Precip. Rpt. Norm Rpt. Norm Pressure
1Fri 11:14 AM  70.3°F  72°F  1 mph SE  2 mph  4 mph  0.00"  61%  46%  56°F  49°F  30.07"
2Fri 11:00 AM  70.4°F  71°F  calm  2 mph  4 mph  0.00"  60%  47%  56°F  49°F  30.08"
Fri 10:00 AM  65.5°F  68°F  1 mph NW  2 mph  4 mph  0.00"  72%  53%  56°F  50°F  30.11"
Fri 09:00 AM  63.5°F  64°F  calm  1 mph  none  0.00"  79%  60%  57°F  49°F  30.10"
Fri 08:00 AM  62.6°F  59°F  calm  1 mph  none  0.00"  80%  66%  56°F  47°F  30.09"
Fri 07:00 AM  62.6°F  56°F  calm  1 mph  4 mph  0.00"  75%  67%  54°F  45°F  30.06"
Fri 06:00 AM  61.5°F  56°F  calm  1 mph  none  0.00"  75%  68%  53°F  45°F  30.03"
Fri 05:00 AM  61.5°F  56°F  calm  1 mph  none  0.00"  77%  69%  54°F  45°F  30.02"
Fri 04:00 AM  62.0°F  56°F  calm  1 mph  none  0.00"  74%  68%  53°F  46°F  30.01"
Fri 03:00 AM  61.5°F  57°F  calm  1 mph  none  0.00"  77%  69%  54°F  46°F  30.00"
3Fri 02:13 AM  60.5°F  57°F  calm  1 mph  none  ----  79%  69%  54°F  46°F  30.00"
Fri 02:00 AM  60.8°F  57°F  calm  1 mph  none  0.00"  79%  69%  54°F  47°F  30.00"
Fri 01:00 AM  62.2°F  57°F  calm  1 mph  none  0.00"  76%  70%  54°F  47°F  30.00"
Fri 12:00 AM  63.9°F  57°F  calm  1 mph  none  0.00"  72%  71%  54°F  48°F  30.00"
Thu 11:00 PM  63.7°F  58°F  calm  1 mph  none  0.00"  72%  72%  54°F  48°F  29.99"
Thu 10:00 PM  63.9°F  58°F  calm  1 mph  none  0.00"  74%  73%  55°F  49°F  29.99"
Thu 09:00 PM  63.6°F  59°F  calm  calm  none  0.00"  78%  74%  56°F  50°F  30.00"
Thu 08:00 PM  64.6°F  59°F  calm  calm  none  0.00"  75%  75%  56°F  51°F  30.00"
Thu 07:00 PM  64.5°F  60°F  calm  calm  4 mph  0.00"  78%  75%  57°F  52°F  29.99"
Thu 06:00 PM  66.5°F  61°F  calm  calm  3 mph  0.00"  73%  72%  57°F  52°F  29.98"
Thu 05:00 PM  70.2°F  64°F  calm  calm  4 mph  0.00"  54%  66%  52°F  52°F  29.94"
Thu 04:00 PM  74.0°F  68°F  calm  2 mph  4 mph  0.00"  46%  57%  51°F  52°F  29.93"
Thu 03:00 PM  76.5°F  71°F  calm  3 mph  4 mph  0.00"  44%  50%  52°F  51°F  29.93"
Thu 02:00 PM  77.8°F  73°F  1 mph SW  4 mph  4 mph  0.00"  39%  48%  50°F  51°F  29.95"
Thu 01:00 PM  80.0°F  74°F  calm  3 mph  6 mph  0.00"  35%  45%  49°F  50°F  29.95"
Thu 12:00 PM  81.4°F  73°F  4 mph SW  3 mph  5 mph  0.00"  34%  44%  49°F  49°F  29.97"
Thu 11:00 AM  77.3°F  71°F  calm  2 mph  4 mph  0.00"  39%  47%  50°F  49°F  29.98"
Thu 10:00 AM  74.7°F  68°F  calm  2 mph  none  0.00"  44%  53%  50°F  50°F  30.00"
Thu 09:00 AM  72.8°F  64°F  calm  1 mph  none  0.00"  42%  60%  47°F  49°F  29.99"
Thu 08:00 AM  66.4°F  59°F  calm  1 mph  none  0.00"  49%  65%  46°F  47°F  30.00"
Thu 07:00 AM  63.6°F  56°F  calm  1 mph  4 mph  0.00"  51%  67%  45°F  45°F  29.98"
Thu 06:00 AM  63.4°F  56°F  2 mph NE  1 mph  4 mph  0.00"  51%  68%  44°F  45°F  29.97"
Thu 05:00 AM  63.9°F  56°F  calm  1 mph  4 mph  0.00"  50%  69%  44°F  45°F  29.96"
Thu 04:00 AM  62.6°F  56°F  calm  1 mph  6 mph  0.00"  54%  68%  45°F  46°F  29.96"
Thu 03:00 AM  63.4°F  57°F  calm  1 mph  4 mph  0.00"  51%  69%  44°F  46°F  29.97"
Thu 02:00 AM  62.2°F  57°F  calm  1 mph  none  0.00"  54%  69%  45°F  47°F  29.97"
Thu 01:00 AM  61.1°F  57°F  calm  1 mph  2 mph  0.00"  61%  70%  47°F  47°F  29.98"
Thu 12:00 AM  61.6°F  58°F  calm  1 mph  3 mph  0.00"  65%  71%  49°F  48°F  29.99"

  1. Current weather data. No green row appears if the current weather data is also the high or low for the current day.
  2. High temperature for the current day.
  3. Low temperature for the current day.

The Fallbrook weather pages are a service of WeatherCurrents. Fallbrook, California is located in northern San Diego County, close to I15 and Camp Pendleton, and is home to ranches, avocado and citrus groves, and plant nurseries.
Copyright ©Fri Nov 17 11:15:11 PST 2017  WeatherCurrents. All rights reserved. - Submit questions and comments - Privacy Policy

This page automatically refreshes every 10 minutes.